createdAt,value
2023-03-23T00:01:43.486Z,75.1
2023-03-23T00:07:37.780Z,75.7
2023-03-23T00:13:35.737Z,76
2023-03-23T00:19:38.461Z,76.2
2023-03-23T00:25:30.135Z,76.7
2023-03-23T00:31:22.330Z,77.4
2023-03-23T00:37:14.988Z,77.3
2023-03-23T00:43:07.965Z,77.6
2023-03-23T00:49:00.766Z,77.1
2023-03-23T00:54:53.255Z,77.1
2023-03-23T01:00:44.044Z,77
2023-03-23T01:06:36.387Z,76.8
2023-03-23T01:12:29.412Z,76.6
2023-03-23T01:18:36.369Z,76.7
2023-03-23T01:24:27.777Z,76.5
2023-03-23T01:30:19.552Z,76
2023-03-23T01:36:10.914Z,76
2023-03-23T01:42:02.530Z,75.3
2023-03-23T01:47:55.961Z,76.3
2023-03-23T01:53:48.454Z,76.1
2023-03-23T01:59:39.819Z,76.6
2023-03-23T02:05:35.602Z,77.1
2023-03-23T02:11:28.309Z,77.6
2023-03-23T02:17:19.886Z,79.1
2023-03-23T02:23:12.939Z,80
2023-03-23T02:29:05.138Z,80.7
2023-03-23T02:34:57.840Z,81.9
2023-03-23T02:40:50.424Z,82.4
2023-03-23T02:46:43.575Z,82.7
2023-03-23T02:52:36.118Z,83.3
2023-03-23T02:58:29.025Z,84.2
2023-03-23T03:04:24.693Z,84.4
2023-03-23T03:10:19.284Z,85.8
2023-03-23T03:16:12.333Z,86.1
2023-03-23T03:22:04.932Z,85.4
2023-03-23T03:27:58.213Z,85.3
2023-03-23T03:33:53.037Z,85.3
2023-03-23T03:39:47.649Z,85
2023-03-23T03:45:41.270Z,85.7
2023-03-23T03:51:35.114Z,85.4
2023-03-23T03:57:28.564Z,86
2023-03-23T04:03:21.894Z,86.2
2023-03-23T04:09:14.749Z,86.1
2023-03-23T04:15:08.583Z,86.8
2023-03-23T04:21:08.489Z,86.8
2023-03-23T04:27:05.162Z,87.8
2023-03-23T04:32:56.139Z,88.1
2023-03-23T04:38:49.333Z,87.6
2023-03-23T04:44:41.900Z,88.3
2023-03-23T04:50:34.054Z,88
2023-03-23T04:56:24.476Z,87.7
2023-03-23T05:02:16.857Z,87.6
2023-03-23T05:08:18.660Z,88.2
2023-03-23T05:14:11.047Z,88.3
2023-03-23T05:20:03.350Z,88.4
2023-03-23T05:25:55.748Z,89.7
2023-03-23T05:31:48.296Z,88.8
2023-03-23T05:37:40.436Z,88.5
2023-03-23T05:43:32.771Z,87.7
2023-03-23T05:49:25.077Z,86.9
2023-03-23T05:55:18.381Z,86.5
2023-03-23T06:01:11.316Z,86.3
2023-03-23T06:07:09.240Z,85.7
2023-03-23T06:13:01.922Z,85.1
2023-03-23T06:18:54.476Z,84.6
2023-03-23T07:24:58.915Z,80.7
2023-03-23T07:43:27.413Z,78.6
2023-03-23T07:49:25.970Z,77.8
2023-03-23T08:02:08.054Z,76.9
2023-03-23T08:08:14.844Z,76.6
2023-03-23T08:14:07.030Z,76.3
2023-03-23T08:20:03.107Z,76.1
2023-03-23T08:25:56.532Z,75.6
2023-03-23T08:31:52.069Z,74.9
2023-03-23T08:37:45.516Z,75.2
2023-03-23T08:43:39.554Z,74.5
2023-03-23T08:49:35.147Z,74.4
2023-03-23T08:55:42.423Z,74
2023-03-23T09:01:52.141Z,73.8
2023-03-23T09:07:56.293Z,73.7
2023-03-23T09:14:28.855Z,73.4
2023-03-23T09:20:28.039Z,73.1
2023-03-23T09:26:21.115Z,73.4
2023-03-23T09:38:45.658Z,71.9
2023-03-23T09:45:08.628Z,71.4
2023-03-23T09:51:18.775Z,71.3
2023-03-23T10:23:02.880Z,72.6
2023-03-23T10:29:07.500Z,72.6
2023-03-23T10:48:06.160Z,72.8
2023-03-23T10:54:13.086Z,72.8
2023-03-23T11:00:22.086Z,72.8
2023-03-23T11:06:21.859Z,73.1
2023-03-23T11:18:22.605Z,72.7
2023-03-23T11:24:15.302Z,72.3
2023-03-23T11:30:14.031Z,72.2
2023-03-23T11:36:07.796Z,71.8
2023-03-23T11:42:10.988Z,71
2023-03-23T11:48:02.175Z,70.4
2023-03-23T11:53:54.575Z,69.7
2023-03-23T11:59:48.376Z,68.6
2023-03-23T12:05:40.624Z,68.3
2023-03-23T12:11:33.862Z,67.9
2023-03-23T12:17:25.696Z,67.8
2023-03-23T12:23:17.440Z,66.8
2023-03-23T12:29:11.724Z,66.5
2023-03-23T12:35:04.146Z,66.3
2023-03-23T12:40:58.467Z,66.6
2023-03-23T12:46:52.456Z,66.4
2023-03-23T12:52:44.736Z,65.4
2023-03-23T12:58:36.372Z,66.3
2023-03-23T13:04:35.990Z,65.6
2023-03-23T13:10:27.768Z,66
2023-03-23T13:16:20.041Z,66.8
2023-03-23T13:22:10.747Z,67
2023-03-23T13:28:01.845Z,66.9
2023-03-23T13:33:55.376Z,67.3
2023-03-23T13:39:46.640Z,67.1
2023-03-23T13:45:38.178Z,65.8
2023-03-23T13:51:32.585Z,65.7
2023-03-23T13:57:25.322Z,65.3
2023-03-23T14:03:19.770Z,65.3
2023-03-23T14:09:11.780Z,65.2
2023-03-23T14:15:08.974Z,65.3
2023-03-23T14:21:02.983Z,65.5
2023-03-23T14:27:02.758Z,65.6
2023-03-23T14:32:54.540Z,65.5
2023-03-23T14:38:47.674Z,65.5
2023-03-23T14:44:43.271Z,66.5
2023-03-23T14:50:34.555Z,65.9
2023-03-23T14:56:28.162Z,66
2023-03-23T15:02:21.119Z,66
2023-03-23T15:08:13.941Z,65.6
2023-03-23T15:14:08.170Z,64.8
2023-03-23T15:19:59.914Z,64
2023-03-23T15:25:54.615Z,64.3
2023-03-23T15:31:47.839Z,64.6
2023-03-23T15:37:40.168Z,64.5
2023-03-23T15:43:31.285Z,63.7
2023-03-23T15:49:23.466Z,62.9
2023-03-23T15:55:16.879Z,62.7
2023-03-23T16:01:09.336Z,63.4
2023-03-23T16:07:02.520Z,63.4
2023-03-23T16:12:57.086Z,62.9
2023-03-23T16:18:52.323Z,63.5
2023-03-23T16:24:51.594Z,63.5
2023-03-23T16:30:44.918Z,62.9
2023-03-23T16:36:35.874Z,62.1
2023-03-23T16:42:29.835Z,61.9
2023-03-23T16:48:24.990Z,61.9
2023-03-23T16:54:20.864Z,62.3
2023-03-23T17:00:13.971Z,62.6
2023-03-23T17:06:06.635Z,62.7
2023-03-23T17:12:00.623Z,63.1
2023-03-23T17:18:02.736Z,63.4
2023-03-23T17:23:55.909Z,64.2
2023-03-23T17:29:49.632Z,64.7
2023-03-23T17:35:41.557Z,65
2023-03-23T17:41:37.577Z,65.5
2023-03-23T17:47:30.893Z,66
2023-03-23T17:53:25.482Z,66.2
2023-03-23T17:59:18.330Z,66.5
2023-03-23T18:05:10.620Z,67.1
2023-03-23T18:11:02.445Z,67.5
2023-03-23T18:16:55.060Z,67.8
2023-03-23T18:22:47.239Z,68.3
2023-03-23T18:28:40.190Z,68.3
2023-03-23T18:34:46.348Z,68.9
2023-03-23T18:40:42.258Z,69.3
2023-03-23T18:46:37.683Z,70
2023-03-23T18:52:30.316Z,70.3
2023-03-23T18:59:00.716Z,70.8
2023-03-23T19:04:53.171Z,70.9
2023-03-23T19:16:58.081Z,71.6
2023-03-23T19:22:54.329Z,72
2023-03-23T19:29:27.564Z,72.3
2023-03-23T19:35:20.590Z,72.5
2023-03-23T19:41:14.301Z,73.3
2023-03-23T19:47:11.104Z,73.6
2023-03-23T19:53:08.043Z,74
2023-03-23T19:59:03.619Z,74.3
2023-03-23T20:05:00.526Z,74.3
2023-03-23T20:11:11.932Z,74.6
2023-03-23T20:17:08.578Z,74.6
2023-03-23T20:23:15.842Z,76.1
2023-03-23T20:29:31.566Z,76.2
2023-03-23T20:35:43.013Z,76.7
2023-03-23T20:41:51.443Z,76.9
2023-03-23T20:48:01.467Z,77.6
2023-03-23T20:54:03.070Z,78.2
2023-03-23T21:00:01.625Z,78.4
2023-03-23T21:05:55.747Z,79.1
2023-03-23T21:11:51.489Z,79.6
2023-03-23T21:17:58.815Z,78.6
2023-03-23T21:23:52.417Z,78
2023-03-23T21:29:48.969Z,78.1
2023-03-23T21:35:42.824Z,78.1
2023-03-23T21:41:44.593Z,76.6
2023-03-23T21:47:39.949Z,77.6
2023-03-23T21:53:31.641Z,76.5
2023-03-23T21:59:23.949Z,76.3
2023-03-23T22:05:15.828Z,76.5
2023-03-23T22:11:07.667Z,76.8
2023-03-23T22:17:00.785Z,77.1
2023-03-23T22:22:52.210Z,77.7
2023-03-23T22:28:44.333Z,78.3
2023-03-23T22:34:37.642Z,78.4
2023-03-23T22:40:29.512Z,78.8
2023-03-23T22:46:25.390Z,79.3
2023-03-23T22:52:22.780Z,79.7
2023-03-23T22:58:25.624Z,79.9
2023-03-23T23:04:19.595Z,80.3
2023-03-23T23:10:17.351Z,80.5
2023-03-23T23:16:10.722Z,80.4
2023-03-23T23:22:20.756Z,81
2023-03-23T23:28:11.796Z,81.3
2023-03-23T23:34:04.084Z,81.5
2023-03-23T23:39:56.288Z,82.1
2023-03-23T23:45:46.842Z,82.5
2023-03-23T23:51:39.702Z,82.8
2023-03-23T23:57:32.448Z,83.5
